createdAt,value
2019-02-05T00:04:55.742Z,101209.00
2019-02-05T00:09:56.975Z,101205.00
2019-02-05T00:14:58.210Z,101207.00
2019-02-05T00:19:59.442Z,101209.00
2019-02-05T00:25:00.939Z,101196.00
2019-02-05T00:30:07.392Z,101209.00
2019-02-05T00:35:09.455Z,101194.00
2019-02-05T00:40:14.399Z,101204.00
2019-02-05T00:45:18.147Z,101204.00
2019-02-05T00:50:19.707Z,101207.00
2019-02-05T00:55:20.963Z,101208.00
2019-02-05T01:00:30.267Z,101201.00
2019-02-05T01:05:31.716Z,101195.00
2019-02-05T01:10:33.067Z,101182.00
2019-02-05T01:15:34.308Z,101181.00
2019-02-05T01:20:35.683Z,101187.00
2019-02-05T01:25:37.739Z,101193.00
2019-02-05T01:30:38.983Z,101185.00
2019-02-05T01:35:40.524Z,101180.00
2019-02-05T01:40:42.090Z,101185.00
2019-02-05T01:45:43.324Z,101182.00
2019-02-05T01:50:44.552Z,101192.00
2019-02-05T01:55:45.800Z,101190.00
2019-02-05T02:00:47.139Z,101164.00
2019-02-05T02:05:48.404Z,101163.00
2019-02-05T02:10:49.841Z,101163.00
2019-02-05T02:15:51.283Z,101166.00
2019-02-05T02:20:53.046Z,101157.00
2019-02-05T02:25:54.271Z,101142.00
2019-02-05T02:30:55.626Z,101160.00
2019-02-05T02:35:56.869Z,101156.00
2019-02-05T02:40:58.141Z,101146.00
2019-02-05T02:45:59.386Z,101146.00
2019-02-05T02:51:00.625Z,101169.00
2019-02-05T02:56:01.974Z,101174.00
2019-02-05T03:01:03.824Z,101170.00
2019-02-05T03:06:05.456Z,101175.00
2019-02-05T03:11:06.909Z,101166.00
2019-02-05T03:16:08.367Z,101165.00
2019-02-05T03:21:09.618Z,101158.00
2019-02-05T03:26:10.861Z,101165.00
2019-02-05T03:31:12.405Z,101167.00
2019-02-05T03:36:13.741Z,101177.00
2019-02-05T03:41:14.976Z,101171.00
2019-02-05T03:46:17.250Z,101159.00
2019-02-05T03:51:27.173Z,101170.00
2019-02-05T03:56:37.005Z,101170.00
2019-02-05T04:01:55.286Z,101171.00
2019-02-05T04:07:43.755Z,101177.00
2019-02-05T04:13:11.324Z,101173.00
2019-02-05T04:18:30.080Z,101166.00
2019-02-05T04:23:42.513Z,101159.00
2019-02-05T04:28:55.472Z,101171.00
2019-02-05T04:34:11.402Z,101186.00
2019-02-05T04:39:41.053Z,101179.00
2019-02-05T04:45:39.404Z,101183.00
2019-02-05T04:51:22.405Z,101186.00
2019-02-05T04:56:55.539Z,101180.00
2019-02-05T05:02:23.209Z,101185.00
2019-02-05T05:07:57.861Z,101198.00
2019-02-05T05:12:59.100Z,101197.00
2019-02-05T05:18:00.398Z,101199.00
2019-02-05T05:23:02.650Z,101196.00
2019-02-05T05:28:10.123Z,101199.00
2019-02-05T05:33:07.756Z,101207.00
2019-02-05T05:38:09.007Z,101201.00
2019-02-05T05:43:10.243Z,101204.00
2019-02-05T05:48:11.500Z,101215.00
2019-02-05T05:53:12.736Z,101206.00
2019-02-05T05:58:22.263Z,101207.00
2019-02-05T06:03:17.265Z,101209.00
2019-02-05T06:08:18.491Z,101205.00
2019-02-05T06:13:19.737Z,101214.00
2019-02-05T06:18:20.987Z,101215.00
2019-02-05T06:23:22.223Z,101224.00
2019-02-05T06:28:33.999Z,101226.00
2019-02-05T06:33:26.623Z,101234.00
2019-02-05T06:38:27.853Z,101242.00
2019-02-05T06:43:29.099Z,101244.00
2019-02-05T06:48:30.778Z,101236.00
2019-02-05T06:53:32.010Z,101237.00
2019-02-05T06:58:33.261Z,101249.00
2019-02-05T07:03:34.627Z,101256.00
2019-02-05T07:08:35.863Z,101257.00
2019-02-05T07:13:37.094Z,101265.00
2019-02-05T07:18:38.341Z,101264.00
2019-02-05T07:23:39.593Z,101268.00
2019-02-05T07:28:40.824Z,101283.00
2019-02-05T07:33:42.060Z,101284.00
2019-02-05T07:38:43.311Z,101289.00
2019-02-05T07:43:44.549Z,101288.00
2019-02-05T07:48:45.898Z,101308.00
2019-02-05T07:53:47.137Z,101304.00
2019-02-05T07:58:48.368Z,101316.00
2019-02-05T08:03:49.605Z,101330.00
2019-02-05T08:08:52.113Z,101334.00
2019-02-05T08:13:53.355Z,101340.00
2019-02-05T08:18:54.819Z,101321.00
2019-02-05T08:23:56.253Z,101337.00
2019-02-05T08:28:57.511Z,101329.00
2019-02-05T08:33:58.752Z,101344.00
2019-02-05T08:39:00.001Z,101337.00
2019-02-05T08:44:01.435Z,101341.00
2019-02-05T08:49:03.673Z,101337.00
2019-02-05T08:54:05.236Z,101342.00
2019-02-05T08:59:06.467Z,101337.00
2019-02-05T09:04:08.129Z,101338.00
2019-02-05T09:09:09.359Z,101341.00
2019-02-05T09:14:11.679Z,101344.00
2019-02-05T09:19:13.830Z,101356.00
2019-02-05T09:24:15.122Z,101370.00
2019-02-05T09:29:16.422Z,101370.00
2019-02-05T09:34:19.564Z,101363.00
2019-02-05T09:39:20.844Z,101377.00
2019-02-05T09:44:22.113Z,101389.00
2019-02-05T09:49:23.377Z,101386.00
2019-02-05T09:54:24.656Z,101393.00
2019-02-05T09:59:25.911Z,101401.00
2019-02-05T10:04:27.351Z,101402.00
2019-02-05T10:09:28.708Z,101418.00
2019-02-05T10:14:29.956Z,101422.00
2019-02-05T10:19:31.235Z,101423.00
2019-02-05T10:24:32.604Z,101419.00
2019-02-05T10:29:33.860Z,101422.00
2019-02-05T10:34:35.135Z,101421.00
2019-02-05T10:39:36.373Z,101425.00
2019-02-05T10:44:37.606Z,101422.00
2019-02-05T10:49:38.870Z,101430.00
2019-02-05T10:54:40.100Z,101436.00
2019-02-05T10:59:41.377Z,101441.00
2019-02-05T11:04:42.616Z,101427.00
2019-02-05T11:09:44.487Z,101445.00
2019-02-05T11:14:45.832Z,101440.00
2019-02-05T11:19:47.206Z,101431.00
2019-02-05T11:24:48.444Z,101422.00
2019-02-05T11:29:49.774Z,101405.00
2019-02-05T11:34:51.052Z,101403.00
2019-02-05T11:39:52.292Z,101405.00
2019-02-05T11:44:53.633Z,101407.00
2019-02-05T11:49:54.877Z,101398.00
2019-02-05T11:55:00.954Z,101406.00
2019-02-05T12:00:08.210Z,101407.00
2019-02-05T12:05:09.861Z,101415.00
2019-02-05T12:10:14.006Z,101411.00
2019-02-05T12:15:16.409Z,101404.00
2019-02-05T12:20:18.708Z,101417.00
2019-02-05T12:25:22.565Z,101396.00
2019-02-05T12:30:44.982Z,101414.00
2019-02-05T12:35:40.548Z,101399.00
2019-02-05T12:40:42.015Z,101402.00
2019-02-05T12:45:43.353Z,101392.00
2019-02-05T12:50:45.018Z,101375.00
2019-02-05T12:55:49.279Z,101380.00
2019-02-05T13:00:57.039Z,101388.00
2019-02-05T13:05:54.193Z,101386.00
2019-02-05T13:10:55.539Z,101373.00
2019-02-05T13:15:56.855Z,101374.00
2019-02-05T13:20:58.212Z,101365.00
2019-02-05T13:25:59.503Z,101372.00
2019-02-05T13:31:08.000Z,101362.00
2019-02-05T13:36:08.494Z,101360.00
2019-02-05T13:41:09.749Z,101372.00
2019-02-05T13:46:11.494Z,101361.00
2019-02-05T13:51:12.801Z,101367.00
2019-02-05T13:56:14.065Z,101369.00
2019-02-05T14:01:20.049Z,101380.00
2019-02-05T14:06:18.488Z,101371.00
2019-02-05T14:11:19.719Z,101377.00
2019-02-05T14:16:21.147Z,101373.00
2019-02-05T14:21:22.425Z,101366.00
2019-02-05T14:26:24.172Z,101373.00
2019-02-05T14:31:31.379Z,101372.00
2019-02-05T14:36:28.572Z,101378.00
2019-02-05T14:41:29.821Z,101369.00
2019-02-05T14:46:31.058Z,101366.00
2019-02-05T14:51:32.334Z,101363.00
2019-02-05T14:56:33.581Z,101357.00
2019-02-05T15:01:42.845Z,101359.00
2019-02-05T15:06:38.923Z,101356.00
2019-02-05T15:11:40.167Z,101361.00
2019-02-05T15:16:41.422Z,101367.00
2019-02-05T15:21:42.682Z,101369.00
2019-02-05T15:26:43.920Z,101369.00
2019-02-05T15:31:54.206Z,101373.00
2019-02-05T15:36:48.380Z,101370.00
2019-02-05T15:41:49.621Z,101379.00
2019-02-05T15:46:50.885Z,101379.00
2019-02-05T15:51:52.134Z,101382.00
2019-02-05T15:56:53.378Z,101381.00
2019-02-05T16:02:05.631Z,101394.00
2019-02-05T16:06:57.771Z,101386.00
2019-02-05T16:11:59.042Z,101376.00
2019-02-05T16:17:00.322Z,101378.00
2019-02-05T16:22:01.546Z,101368.00
2019-02-05T16:27:03.448Z,101381.00
2019-02-05T16:32:04.691Z,101378.00
2019-02-05T16:37:06.053Z,101370.00
2019-02-05T16:42:09.211Z,101383.00
2019-02-05T16:47:10.473Z,101382.00
2019-02-05T16:52:11.742Z,101377.00
2019-02-05T16:57:13.088Z,101380.00
2019-02-05T17:02:14.352Z,101384.00
2019-02-05T17:07:16.516Z,101375.00
2019-02-05T17:12:17.737Z,101378.00
2019-02-05T17:17:20.869Z,101391.00
2019-02-05T17:22:22.203Z,101399.00
2019-02-05T17:27:23.450Z,101397.00
2019-02-05T17:32:24.731Z,101396.00
2019-02-05T17:37:25.997Z,101387.00
2019-02-05T17:42:27.355Z,101395.00
2019-02-05T17:47:28.903Z,101395.00
2019-02-05T17:52:30.273Z,101397.00
2019-02-05T17:57:31.532Z,101402.00
2019-02-05T18:02:32.795Z,101412.00
2019-02-05T18:07:34.068Z,101401.00
2019-02-05T18:12:35.353Z,101395.00
2019-02-05T18:17:38.669Z,101383.00
2019-02-05T18:22:40.002Z,101392.00
2019-02-05T18:27:41.814Z,101394.00
2019-02-05T18:32:43.178Z,101387.00
2019-02-05T18:37:44.625Z,101399.00
2019-02-05T18:42:46.166Z,101398.00
2019-02-05T18:47:47.830Z,101399.00
2019-02-05T18:52:49.421Z,101384.00
2019-02-05T18:57:50.768Z,101391.00
2019-02-05T19:02:52.028Z,101391.00
2019-02-05T19:07:53.605Z,101392.00
2019-02-05T19:12:54.986Z,101394.00
2019-02-05T19:17:56.571Z,101394.00
2019-02-05T19:22:58.939Z,101386.00
2019-02-05T19:28:00.339Z,101394.00
2019-02-05T19:33:02.094Z,101399.00
2019-02-05T19:38:04.148Z,101392.00
2019-02-05T19:43:05.507Z,101396.00
2019-02-05T19:48:08.780Z,101399.00
2019-02-05T19:53:10.131Z,101378.00
2019-02-05T19:58:11.515Z,101369.00
2019-02-05T20:03:12.892Z,101376.00
2019-02-05T20:08:14.258Z,101366.00
2019-02-05T20:13:15.551Z,101361.00
2019-02-05T20:18:16.991Z,101351.00
2019-02-05T20:23:18.324Z,101359.00
2019-02-05T20:28:19.632Z,101371.00
2019-02-05T20:33:20.900Z,101369.00
2019-02-05T20:38:22.466Z,101374.00
2019-02-05T20:43:23.758Z,101379.00
2019-02-05T20:48:25.161Z,101374.00
2019-02-05T20:53:26.669Z,101366.00
2019-02-05T20:58:27.928Z,101382.00
2019-02-05T21:03:29.205Z,101378.00
2019-02-05T21:08:30.468Z,101383.00
2019-02-05T21:13:31.940Z,101371.00
2019-02-05T21:18:33.695Z,101379.00
2019-02-05T21:23:37.920Z,101365.00
2019-02-05T21:28:38.120Z,101358.00
2019-02-05T21:33:39.670Z,101365.00
2019-02-05T21:38:40.936Z,101366.00
2019-02-05T21:43:42.198Z,101369.00
2019-02-05T21:48:43.460Z,101361.00
2019-02-05T21:53:44.757Z,101365.00
2019-02-05T21:58:46.024Z,101356.00
2019-02-05T22:03:47.411Z,101352.00
2019-02-05T22:08:48.660Z,101346.00
2019-02-05T22:13:49.999Z,101348.00
2019-02-05T22:18:51.259Z,101342.00
2019-02-05T22:23:52.834Z,101339.00
2019-02-05T22:28:54.061Z,101328.00
2019-02-05T22:33:55.337Z,101324.00
2019-02-05T22:38:57.551Z,101326.00
2019-02-05T22:43:59.144Z,101326.00
2019-02-05T22:49:00.528Z,101328.00
2019-02-05T22:54:01.786Z,101323.00
2019-02-05T22:59:03.852Z,101335.00
2019-02-05T23:04:08.899Z,101322.00
2019-02-05T23:09:18.785Z,101329.00
2019-02-05T23:14:20.003Z,101327.00
2019-02-05T23:19:21.363Z,101327.00
2019-02-05T23:24:22.642Z,101324.00
2019-02-05T23:29:23.998Z,101324.00
2019-02-05T23:34:25.247Z,101323.00
2019-02-05T23:39:26.510Z,101316.00
2019-02-05T23:44:27.880Z,101314.00
2019-02-05T23:49:29.832Z,101313.00
2019-02-05T23:54:31.082Z,101328.00
2019-02-05T23:59:32.326Z,101330.00
